AAL829 KBHM-SKPE
Flight info
| Callsign | AAL829 |
|---|---|
| Flight time | N/A |
| Altitude | 35000 |
| Route | JYROD Q110 SHEEK Q118 FEMID Q79 VAULT/N0460F360 Q79 MCLAW Y442 FUNDI/N0458F370 UM335 ARNAL UL465 TBG UP527 UIB UIB1A |
| Aircraft | B738/M-SDE2E3FGHIRWXY/LB1 |
Departure
| Time | N/A |
|---|---|
| Airport | Birmingham-Shuttlesworth International Airport (KBHM) |
Arrival
| Time | 2026-04-20 22:01 |
|---|---|
| Airport | Matecaña International Airport (SKPE) |
| Time | Latitude | Longitude | Altitude | Speed | Heading |
|---|---|---|---|---|---|
| 2026-04-20 19:06 | 24.18395 | -81.01363 | 37094 ft | 468 kts | 188° |
| 2026-04-20 19:07 | 24.11866 | -81.01305 | 37091 ft | 468 kts | 188° |
| 2026-04-20 19:07 | 24.05330 | -81.01247 | 37088 ft | 468 kts | 188° |
| 2026-04-20 19:08 | 23.95589 | -81.01081 | 37088 ft | 469 kts | 186° |
| 2026-04-20 19:09 | 23.89046 | -81.00773 | 37087 ft | 470 kts | 185° |
| 2026-04-20 19:09 | 23.82513 | -81.00458 | 37088 ft | 469 kts | 186° |
| 2026-04-20 19:10 | 23.75987 | -81.00167 | 37086 ft | 469 kts | 186° |
| 2026-04-20 19:10 | 23.69483 | -80.99889 | 37079 ft | 469 kts | 186° |
| 2026-04-20 19:11 | 23.62978 | -80.99613 | 37086 ft | 469 kts | 186° |
| 2026-04-20 19:11 | 23.56486 | -80.99336 | 37080 ft | 469 kts | 186° |
| 2026-04-20 19:12 | 23.49947 | -80.99057 | 37088 ft | 469 kts | 186° |
| 2026-04-20 19:12 | 23.43435 | -80.98779 | 37088 ft | 469 kts | 186° |
| 2026-04-20 19:13 | 23.36885 | -80.98500 | 37082 ft | 469 kts | 185° |
| 2026-04-20 19:13 | 23.30381 | -80.98223 | 37082 ft | 469 kts | 185° |
| 2026-04-20 19:14 | 23.23867 | -80.97950 | 37082 ft | 469 kts | 185° |
| 2026-04-20 19:14 | 23.17321 | -80.97688 | 37081 ft | 470 kts | 185° |
| 2026-04-20 19:15 | 23.10833 | -80.97427 | 37080 ft | 470 kts | 185° |
| 2026-04-20 19:15 | 23.04278 | -80.97173 | 37081 ft | 470 kts | 186° |
| 2026-04-20 19:16 | 22.97733 | -80.96941 | 37074 ft | 470 kts | 185° |
| 2026-04-20 19:16 | 22.91220 | -80.96682 | 37076 ft | 470 kts | 185° |
| 2026-04-20 19:17 | 22.84654 | -80.96417 | 37071 ft | 470 kts | 185° |
| 2026-04-20 19:17 | 22.78118 | -80.96157 | 37069 ft | 471 kts | 185° |
| 2026-04-20 19:18 | 22.71589 | -80.95899 | 37059 ft | 471 kts | 185° |
| 2026-04-20 19:18 | 22.65018 | -80.95640 | 37051 ft | 472 kts | 185° |
| 2026-04-20 19:19 | 22.58491 | -80.95383 | 37058 ft | 471 kts | 185° |
| 2026-04-20 19:19 | 22.51912 | -80.95124 | 37049 ft | 471 kts | 185° |
| 2026-04-20 19:20 | 22.45345 | -80.94866 | 37048 ft | 471 kts | 185° |
| 2026-04-20 19:20 | 22.38831 | -80.94610 | 37047 ft | 471 kts | 185° |
| 2026-04-20 19:21 | 22.32259 | -80.94352 | 37045 ft | 471 kts | 185° |
| 2026-04-20 19:21 | 22.25703 | -80.94095 | 37047 ft | 471 kts | 185° |
| 2026-04-20 19:22 | 22.19190 | -80.93840 | 37039 ft | 470 kts | 184° |
| 2026-04-20 19:22 | 22.12629 | -80.93584 | 37047 ft | 470 kts | 184° |
| 2026-04-20 19:23 | 22.06119 | -80.93329 | 37051 ft | 470 kts | 184° |
| 2026-04-20 19:23 | 21.99599 | -80.93075 | 37055 ft | 470 kts | 184° |
| 2026-04-20 19:24 | 21.93049 | -80.92819 | 37052 ft | 470 kts | 184° |
| 2026-04-20 19:24 | 21.86526 | -80.92565 | 37047 ft | 470 kts | 184° |
| 2026-04-20 19:25 | 21.79966 | -80.92310 | 37051 ft | 470 kts | 184° |
| 2026-04-20 19:25 | 21.73447 | -80.92056 | 37052 ft | 470 kts | 184° |
| 2026-04-20 19:26 | 21.66891 | -80.91801 | 37054 ft | 470 kts | 184° |
| 2026-04-20 19:26 | 21.60335 | -80.91547 | 37053 ft | 470 kts | 184° |
| 2026-04-20 19:27 | 21.53818 | -80.91294 | 37052 ft | 470 kts | 184° |
| 2026-04-20 19:27 | 21.47258 | -80.91041 | 37054 ft | 470 kts | 184° |
| 2026-04-20 19:28 | 21.40741 | -80.90792 | 37053 ft | 470 kts | 184° |
| 2026-04-20 19:28 | 21.34188 | -80.90542 | 37057 ft | 471 kts | 184° |
| 2026-04-20 19:29 | 21.27635 | -80.90291 | 37053 ft | 471 kts | 184° |
| 2026-04-20 19:29 | 21.21124 | -80.90043 | 37055 ft | 471 kts | 184° |
| 2026-04-20 19:30 | 21.14557 | -80.89792 | 37054 ft | 471 kts | 184° |
| 2026-04-20 19:30 | 21.08007 | -80.89542 | 37054 ft | 471 kts | 184° |
| 2026-04-20 19:31 | 21.01482 | -80.89273 | 37052 ft | 471 kts | 183° |
| 2026-04-20 19:31 | 20.94925 | -80.88978 | 37048 ft | 471 kts | 183° |
| 2026-04-20 19:32 | 20.88401 | -80.88684 | 37042 ft | 471 kts | 183° |
| 2026-04-20 19:32 | 20.81839 | -80.88392 | 37044 ft | 471 kts | 183° |
| 2026-04-20 19:33 | 20.75280 | -80.88103 | 37049 ft | 471 kts | 183° |
| 2026-04-20 19:33 | 20.68774 | -80.87816 | 37043 ft | 470 kts | 183° |
| 2026-04-20 19:34 | 20.62210 | -80.87528 | 37043 ft | 470 kts | 183° |
| 2026-04-20 19:34 | 20.55703 | -80.87241 | 37043 ft | 470 kts | 183° |
| 2026-04-20 19:35 | 20.49184 | -80.86955 | 37039 ft | 470 kts | 183° |
| 2026-04-20 19:35 | 20.42630 | -80.86667 | 37038 ft | 470 kts | 182° |
| 2026-04-20 19:36 | 20.36076 | -80.86379 | 37039 ft | 470 kts | 182° |
| 2026-04-20 19:36 | 20.29583 | -80.86094 | 37038 ft | 469 kts | 182° |
| 2026-04-20 19:37 | 20.23061 | -80.85809 | 37037 ft | 469 kts | 182° |
| 2026-04-20 19:37 | 20.16518 | -80.85522 | 37038 ft | 469 kts | 182° |
| 2026-04-20 19:38 | 20.10030 | -80.85238 | 37034 ft | 469 kts | 182° |
| 2026-04-20 19:38 | 20.03495 | -80.84953 | 37032 ft | 469 kts | 182° |
| 2026-04-20 19:39 | 19.96996 | -80.84663 | 37034 ft | 469 kts | 182° |
| 2026-04-20 19:39 | 19.90463 | -80.84347 | 37036 ft | 469 kts | 182° |
| 2026-04-20 19:40 | 19.83937 | -80.84028 | 37036 ft | 469 kts | 182° |
| 2026-04-20 19:40 | 19.77452 | -80.83714 | 37034 ft | 469 kts | 182° |
| 2026-04-20 19:41 | 19.72021 | -80.83453 | 37030 ft | 469 kts | 182° |
| 2026-04-20 19:41 | 19.65487 | -80.83139 | 37035 ft | 468 kts | 182° |
| 2026-04-20 19:42 | 19.58956 | -80.82826 | 37029 ft | 468 kts | 182° |
| 2026-04-20 19:42 | 19.52479 | -80.82515 | 37029 ft | 468 kts | 182° |
| 2026-04-20 19:43 | 19.44899 | -80.82152 | 37032 ft | 468 kts | 182° |
| 2026-04-20 19:43 | 19.38384 | -80.81840 | 37027 ft | 467 kts | 182° |
| 2026-04-20 19:44 | 19.31907 | -80.81530 | 37022 ft | 467 kts | 181° |
| 2026-04-20 19:44 | 19.26503 | -80.81272 | 37026 ft | 467 kts | 181° |
| 2026-04-20 19:45 | 19.19996 | -80.80962 | 37025 ft | 466 kts | 181° |
| 2026-04-20 19:45 | 19.13541 | -80.80656 | 37024 ft | 466 kts | 181° |
| 2026-04-20 19:46 | 19.07042 | -80.80348 | 37024 ft | 466 kts | 181° |
| 2026-04-20 19:46 | 19.00591 | -80.80042 | 37023 ft | 465 kts | 181° |
| 2026-04-20 19:47 | 18.94108 | -80.79735 | 37018 ft | 465 kts | 181° |
| 2026-04-20 19:47 | 18.87639 | -80.79428 | 37022 ft | 465 kts | 181° |
| 2026-04-20 19:48 | 18.81198 | -80.79124 | 37020 ft | 465 kts | 181° |
| 2026-04-20 19:48 | 18.74726 | -80.78818 | 37022 ft | 464 kts | 181° |
| 2026-04-20 19:49 | 18.68290 | -80.78514 | 37016 ft | 464 kts | 181° |
| 2026-04-20 19:49 | 18.61816 | -80.78208 | 37017 ft | 464 kts | 181° |
| 2026-04-20 19:50 | 18.55398 | -80.77906 | 37014 ft | 464 kts | 181° |
| 2026-04-20 19:50 | 18.48916 | -80.77600 | 37013 ft | 464 kts | 181° |
| 2026-04-20 19:51 | 18.42483 | -80.77297 | 37013 ft | 464 kts | 181° |
| 2026-04-20 19:51 | 18.36059 | -80.76995 | 37014 ft | 464 kts | 181° |
| 2026-04-20 19:52 | 18.29596 | -80.76691 | 37008 ft | 464 kts | 181° |
| 2026-04-20 19:52 | 18.23169 | -80.76389 | 37011 ft | 464 kts | 181° |
| 2026-04-20 19:53 | 18.16703 | -80.76085 | 37011 ft | 464 kts | 181° |
| 2026-04-20 19:53 | 18.10245 | -80.75782 | 37012 ft | 464 kts | 181° |
| 2026-04-20 19:54 | 18.03823 | -80.75481 | 37007 ft | 464 kts | 181° |
| 2026-04-20 19:54 | 17.97354 | -80.75178 | 37007 ft | 464 kts | 181° |
| 2026-04-20 19:55 | 17.90940 | -80.74878 | 37008 ft | 463 kts | 181° |
| 2026-04-20 19:55 | 17.84473 | -80.74575 | 37006 ft | 463 kts | 181° |
| 2026-04-20 19:56 | 17.78028 | -80.74274 | 37011 ft | 463 kts | 181° |
| 2026-04-20 19:56 | 17.71614 | -80.73974 | 37003 ft | 463 kts | 181° |
| 2026-04-20 19:57 | 17.65170 | -80.73673 | 37006 ft | 463 kts | 181° |
| 2026-04-20 19:57 | 17.58736 | -80.73373 | 37006 ft | 462 kts | 180° |
| 2026-04-20 19:58 | 17.52336 | -80.73073 | 37000 ft | 462 kts | 180° |
| 2026-04-20 19:58 | 17.45903 | -80.72771 | 36999 ft | 462 kts | 180° |
| 2026-04-20 19:59 | 17.39508 | -80.72472 | 37000 ft | 462 kts | 180° |
| 2026-04-20 19:59 | 17.33106 | -80.72172 | 37000 ft | 461 kts | 180° |
| 2026-04-20 20:00 | 17.26658 | -80.71871 | 36999 ft | 461 kts | 180° |
| 2026-04-20 20:00 | 17.20272 | -80.71572 | 36995 ft | 461 kts | 180° |
| 2026-04-20 20:01 | 17.13830 | -80.71272 | 36995 ft | 461 kts | 180° |
| 2026-04-20 20:01 | 17.07453 | -80.70974 | 36994 ft | 461 kts | 180° |
| 2026-04-20 20:02 | 17.01024 | -80.70674 | 36998 ft | 461 kts | 180° |
| 2026-04-20 20:02 | 16.94604 | -80.70375 | 36993 ft | 461 kts | 180° |
| 2026-04-20 20:03 | 16.88212 | -80.70078 | 36995 ft | 461 kts | 180° |
| 2026-04-20 20:03 | 16.81816 | -80.69780 | 36993 ft | 461 kts | 180° |
| 2026-04-20 20:04 | 16.75394 | -80.69482 | 36990 ft | 461 kts | 180° |
| 2026-04-20 20:04 | 16.68958 | -80.69182 | 36997 ft | 461 kts | 180° |
| 2026-04-20 20:05 | 16.62575 | -80.68886 | 36994 ft | 461 kts | 180° |
| 2026-04-20 20:05 | 16.56138 | -80.68587 | 36984 ft | 461 kts | 180° |
| 2026-04-20 20:06 | 16.49717 | -80.68289 | 36990 ft | 461 kts | 180° |
| 2026-04-20 20:06 | 16.43326 | -80.67993 | 36985 ft | 461 kts | 179° |
| 2026-04-20 20:07 | 16.36897 | -80.67696 | 36983 ft | 461 kts | 179° |
| 2026-04-20 20:07 | 16.30519 | -80.67400 | 36998 ft | 461 kts | 179° |
| 2026-04-20 20:08 | 16.24089 | -80.67103 | 36983 ft | 461 kts | 179° |
| 2026-04-20 20:08 | 16.17666 | -80.66806 | 36981 ft | 461 kts | 179° |
| 2026-04-20 20:09 | 16.11281 | -80.66511 | 36975 ft | 461 kts | 179° |
| 2026-04-20 20:09 | 16.04869 | -80.66215 | 36980 ft | 461 kts | 179° |
| 2026-04-20 20:10 | 15.98485 | -80.65920 | 36981 ft | 461 kts | 179° |
| 2026-04-20 20:10 | 15.92067 | -80.65625 | 36977 ft | 461 kts | 179° |
| 2026-04-20 20:11 | 15.85690 | -80.65331 | 36985 ft | 461 kts | 179° |
| 2026-04-20 20:11 | 15.79265 | -80.65035 | 36972 ft | 461 kts | 179° |
| 2026-04-20 20:12 | 15.72890 | -80.64742 | 36976 ft | 461 kts | 179° |
| 2026-04-20 20:12 | 15.66464 | -80.64446 | 36983 ft | 461 kts | 179° |
| 2026-04-20 20:13 | 15.56879 | -80.64006 | 36975 ft | 461 kts | 179° |
| 2026-04-20 20:13 | 15.50457 | -80.63711 | 36971 ft | 461 kts | 179° |
| 2026-04-20 20:14 | 15.44067 | -80.63417 | 36978 ft | 461 kts | 179° |
| 2026-04-20 20:14 | 15.37642 | -80.63123 | 36970 ft | 461 kts | 179° |
| 2026-04-20 20:15 | 15.31218 | -80.62829 | 36976 ft | 461 kts | 179° |
| 2026-04-20 20:15 | 15.24826 | -80.62536 | 36966 ft | 462 kts | 179° |
| 2026-04-20 20:16 | 15.18426 | -80.62243 | 36967 ft | 462 kts | 179° |
| 2026-04-20 20:16 | 15.11988 | -80.61948 | 36970 ft | 462 kts | 179° |
| 2026-04-20 20:17 | 15.05591 | -80.61656 | 36969 ft | 462 kts | 179° |
| 2026-04-20 20:17 | 14.99155 | -80.61315 | 36972 ft | 463 kts | 175° |
| 2026-04-20 20:18 | 14.92782 | -80.60318 | 36976 ft | 463 kts | 171° |
| 2026-04-20 20:18 | 14.86417 | -80.59139 | 36973 ft | 464 kts | 171° |
| 2026-04-20 20:19 | 14.80092 | -80.57993 | 36966 ft | 464 kts | 172° |
| 2026-04-20 20:19 | 14.73712 | -80.56880 | 36965 ft | 464 kts | 172° |
| 2026-04-20 20:20 | 14.67366 | -80.55791 | 36964 ft | 464 kts | 172° |
| 2026-04-20 20:20 | 14.60979 | -80.54698 | 36966 ft | 464 kts | 172° |
| 2026-04-20 20:21 | 14.54635 | -80.53612 | 36965 ft | 464 kts | 172° |
| 2026-04-20 20:21 | 14.48263 | -80.52521 | 36967 ft | 463 kts | 172° |
| 2026-04-20 20:22 | 14.41923 | -80.51435 | 36955 ft | 463 kts | 172° |
| 2026-04-20 20:22 | 14.35532 | -80.50342 | 36963 ft | 463 kts | 172° |
| 2026-04-20 20:23 | 14.29193 | -80.49258 | 36960 ft | 463 kts | 172° |
| 2026-04-20 20:23 | 14.22815 | -80.48168 | 36962 ft | 463 kts | 172° |
| 2026-04-20 20:24 | 14.16473 | -80.47085 | 36954 ft | 463 kts | 172° |
| 2026-04-20 20:24 | 14.10100 | -80.45997 | 36956 ft | 463 kts | 172° |
| 2026-04-20 20:25 | 14.03758 | -80.44915 | 36955 ft | 463 kts | 172° |
| 2026-04-20 20:25 | 13.97388 | -80.43828 | 36951 ft | 463 kts | 172° |
| 2026-04-20 20:26 | 13.91018 | -80.42743 | 36955 ft | 463 kts | 172° |
| 2026-04-20 20:26 | 13.84701 | -80.41667 | 36952 ft | 463 kts | 172° |
| 2026-04-20 20:27 | 13.78332 | -80.40583 | 36948 ft | 463 kts | 172° |
| 2026-04-20 20:27 | 13.71969 | -80.39500 | 36951 ft | 463 kts | 171° |
| 2026-04-20 20:28 | 13.65644 | -80.38425 | 36944 ft | 463 kts | 171° |
| 2026-04-20 20:28 | 13.59267 | -80.37341 | 36952 ft | 463 kts | 171° |
| 2026-04-20 20:29 | 13.53975 | -80.36442 | 36946 ft | 463 kts | 171° |
| 2026-04-20 20:29 | 13.46583 | -80.35187 | 36954 ft | 462 kts | 171° |
| 2026-04-20 20:30 | 13.41292 | -80.34289 | 36946 ft | 462 kts | 171° |
| 2026-04-20 20:30 | 13.34929 | -80.33210 | 36944 ft | 462 kts | 171° |
| 2026-04-20 20:31 | 13.28603 | -80.32138 | 36943 ft | 462 kts | 171° |
| 2026-04-20 20:31 | 13.22246 | -80.31061 | 36945 ft | 462 kts | 171° |
| 2026-04-20 20:32 | 13.15927 | -80.29990 | 36944 ft | 462 kts | 171° |
| 2026-04-20 20:32 | 13.09568 | -80.28914 | 36943 ft | 462 kts | 171° |
| 2026-04-20 20:33 | 13.03255 | -80.27846 | 36942 ft | 462 kts | 171° |
| 2026-04-20 20:33 | 12.96909 | -80.26773 | 36944 ft | 461 kts | 171° |
| 2026-04-20 20:34 | 12.90564 | -80.25701 | 36943 ft | 461 kts | 170° |
| 2026-04-20 20:34 | 12.84267 | -80.24637 | 36941 ft | 461 kts | 170° |
| 2026-04-20 20:35 | 12.77928 | -80.23567 | 36941 ft | 460 kts | 170° |
| 2026-04-20 20:35 | 12.71594 | -80.22499 | 36939 ft | 460 kts | 170° |
| 2026-04-20 20:36 | 12.65295 | -80.21437 | 36937 ft | 460 kts | 170° |
| 2026-04-20 20:36 | 12.58979 | -80.20372 | 36938 ft | 459 kts | 170° |
| 2026-04-20 20:37 | 12.52690 | -80.19312 | 36938 ft | 459 kts | 170° |
| 2026-04-20 20:37 | 12.46382 | -80.18250 | 36938 ft | 459 kts | 170° |
| 2026-04-20 20:38 | 12.40077 | -80.17189 | 36935 ft | 458 kts | 170° |
| 2026-04-20 20:38 | 12.33803 | -80.16134 | 36934 ft | 458 kts | 170° |
| 2026-04-20 20:39 | 12.27497 | -80.15073 | 36932 ft | 458 kts | 170° |
| 2026-04-20 20:39 | 12.21244 | -80.14022 | 36934 ft | 457 kts | 170° |
| 2026-04-20 20:40 | 12.14941 | -80.12964 | 36930 ft | 457 kts | 170° |
| 2026-04-20 20:40 | 12.08688 | -80.11914 | 36931 ft | 456 kts | 170° |
| 2026-04-20 20:41 | 12.02436 | -80.10864 | 36929 ft | 456 kts | 170° |
| 2026-04-20 20:41 | 11.96163 | -80.09813 | 36930 ft | 455 kts | 170° |
| 2026-04-20 20:42 | 11.89934 | -80.08768 | 36937 ft | 455 kts | 170° |
| 2026-04-20 20:42 | 11.83674 | -80.07719 | 36925 ft | 454 kts | 170° |
| 2026-04-20 20:43 | 11.77454 | -80.06677 | 36924 ft | 454 kts | 170° |
| 2026-04-20 20:43 | 11.71209 | -80.05632 | 36930 ft | 454 kts | 170° |
| 2026-04-20 20:44 | 11.65001 | -80.04593 | 36930 ft | 454 kts | 170° |
| 2026-04-20 20:44 | 11.58782 | -80.03553 | 36924 ft | 453 kts | 170° |
| 2026-04-20 20:45 | 11.52530 | -80.02507 | 36923 ft | 453 kts | 170° |
| 2026-04-20 20:45 | 11.46337 | -80.01472 | 36930 ft | 453 kts | 169° |
| 2026-04-20 20:46 | 11.40091 | -80.00428 | 36930 ft | 454 kts | 169° |
| 2026-04-20 20:46 | 11.33873 | -79.99390 | 36924 ft | 454 kts | 169° |
| 2026-04-20 20:47 | 11.27623 | -79.98347 | 36919 ft | 454 kts | 169° |
| 2026-04-20 20:47 | 11.21408 | -79.97310 | 36926 ft | 454 kts | 169° |
| 2026-04-20 20:48 | 11.15149 | -79.96266 | 36914 ft | 454 kts | 169° |
| 2026-04-20 20:48 | 11.08907 | -79.95226 | 36916 ft | 455 kts | 169° |
| 2026-04-20 20:49 | 11.02683 | -79.94189 | 36915 ft | 455 kts | 169° |
| 2026-04-20 20:49 | 10.96427 | -79.93147 | 36922 ft | 455 kts | 169° |
| 2026-04-20 20:50 | 10.90197 | -79.92110 | 36915 ft | 455 kts | 169° |
| 2026-04-20 20:50 | 10.83923 | -79.91066 | 36916 ft | 455 kts | 169° |
| 2026-04-20 20:51 | 10.77707 | -79.90032 | 36920 ft | 455 kts | 169° |
| 2026-04-20 20:51 | 10.71433 | -79.88989 | 36914 ft | 455 kts | 169° |
| 2026-04-20 20:52 | 10.65222 | -79.87957 | 36914 ft | 455 kts | 169° |
| 2026-04-20 20:52 | 10.58954 | -79.86915 | 36913 ft | 455 kts | 169° |
| 2026-04-20 20:53 | 10.52733 | -79.85882 | 36912 ft | 455 kts | 169° |
| 2026-04-20 20:53 | 10.46461 | -79.84841 | 36916 ft | 454 kts | 169° |
| 2026-04-20 20:54 | 10.40246 | -79.83806 | 36920 ft | 454 kts | 169° |
| 2026-04-20 20:54 | 10.33996 | -79.82737 | 36920 ft | 454 kts | 169° |
| 2026-04-20 20:55 | 10.27814 | -79.81670 | 36906 ft | 454 kts | 169° |
| 2026-04-20 20:55 | 10.21577 | -79.80596 | 36911 ft | 453 kts | 169° |
| 2026-04-20 20:56 | 10.15380 | -79.79532 | 36912 ft | 453 kts | 169° |
| 2026-04-20 20:56 | 10.09132 | -79.78460 | 36904 ft | 453 kts | 169° |
| 2026-04-20 20:57 | 10.02945 | -79.77400 | 36906 ft | 453 kts | 169° |
| 2026-04-20 20:57 | 9.96725 | -79.76334 | 36912 ft | 452 kts | 169° |
| 2026-04-20 20:58 | 9.90543 | -79.75275 | 36900 ft | 452 kts | 169° |
| 2026-04-20 20:58 | 9.84319 | -79.74209 | 36904 ft | 452 kts | 169° |
| 2026-04-20 20:59 | 9.78119 | -79.73148 | 36898 ft | 452 kts | 169° |
| 2026-04-20 20:59 | 9.71942 | -79.72092 | 36897 ft | 451 kts | 169° |
| 2026-04-20 21:00 | 9.65733 | -79.71029 | 36899 ft | 451 kts | 169° |
| 2026-04-20 21:00 | 9.59573 | -79.69976 | 36895 ft | 450 kts | 169° |
| 2026-04-20 21:01 | 9.53382 | -79.68918 | 36906 ft | 449 kts | 170° |
| 2026-04-20 21:01 | 9.47243 | -79.67870 | 36907 ft | 449 kts | 170° |
| 2026-04-20 21:02 | 9.41080 | -79.66817 | 36910 ft | 449 kts | 170° |
| 2026-04-20 21:02 | 9.34906 | -79.65763 | 36903 ft | 449 kts | 170° |
| 2026-04-20 21:03 | 9.28752 | -79.64713 | 36897 ft | 448 kts | 170° |
| 2026-04-20 21:03 | 9.22641 | -79.63670 | 36899 ft | 448 kts | 170° |
| 2026-04-20 21:04 | 9.16501 | -79.62623 | 36906 ft | 448 kts | 170° |
| 2026-04-20 21:04 | 9.10347 | -79.61574 | 36915 ft | 447 kts | 170° |
| 2026-04-20 21:05 | 9.04196 | -79.60525 | 36913 ft | 447 kts | 170° |
| 2026-04-20 21:05 | 8.98088 | -79.59485 | 36910 ft | 447 kts | 170° |
| 2026-04-20 21:06 | 8.91944 | -79.58438 | 36889 ft | 447 kts | 171° |
| 2026-04-20 21:06 | 8.85801 | -79.57392 | 36884 ft | 447 kts | 171° |
| 2026-04-20 21:07 | 8.79817 | -79.55844 | 36888 ft | 447 kts | 155° |
| 2026-04-20 21:07 | 8.74625 | -79.52452 | 36861 ft | 449 kts | 138° |
| 2026-04-20 21:08 | 8.70053 | -79.48117 | 36866 ft | 450 kts | 137° |
| 2026-04-20 21:08 | 8.65530 | -79.43770 | 36873 ft | 451 kts | 137° |
| 2026-04-20 21:09 | 8.60957 | -79.39426 | 36870 ft | 452 kts | 137° |
| 2026-04-20 21:09 | 8.56358 | -79.35094 | 36866 ft | 453 kts | 137° |
| 2026-04-20 21:10 | 8.51721 | -79.30738 | 36863 ft | 454 kts | 138° |
| 2026-04-20 21:10 | 8.47102 | -79.26402 | 36868 ft | 455 kts | 137° |
| 2026-04-20 21:11 | 8.42451 | -79.22035 | 36860 ft | 456 kts | 138° |
| 2026-04-20 21:11 | 8.37783 | -79.17653 | 36860 ft | 456 kts | 138° |
| 2026-04-20 21:12 | 8.33158 | -79.13314 | 36861 ft | 456 kts | 138° |
| 2026-04-20 21:12 | 8.28511 | -79.08954 | 36856 ft | 456 kts | 138° |
| 2026-04-20 21:13 | 8.23857 | -79.04590 | 36866 ft | 455 kts | 138° |
| 2026-04-20 21:13 | 8.19247 | -79.00268 | 36855 ft | 454 kts | 138° |
| 2026-04-20 21:14 | 8.14606 | -78.95919 | 36854 ft | 453 kts | 138° |
| 2026-04-20 21:14 | 8.10014 | -78.91617 | 36858 ft | 453 kts | 138° |
| 2026-04-20 21:15 | 8.05386 | -78.87283 | 36855 ft | 452 kts | 138° |
| 2026-04-20 21:15 | 8.00791 | -78.82981 | 36857 ft | 452 kts | 138° |
| 2026-04-20 21:16 | 7.96165 | -78.78651 | 36859 ft | 452 kts | 138° |
| 2026-04-20 21:16 | 7.91552 | -78.74336 | 36856 ft | 452 kts | 138° |
| 2026-04-20 21:17 | 7.86973 | -78.70053 | 36855 ft | 452 kts | 138° |
| 2026-04-20 21:17 | 7.82348 | -78.65729 | 36859 ft | 452 kts | 138° |
| 2026-04-20 21:18 | 7.77754 | -78.61435 | 36855 ft | 452 kts | 138° |
| 2026-04-20 21:18 | 7.73904 | -78.57837 | 36860 ft | 453 kts | 138° |
| 2026-04-20 21:19 | 7.69273 | -78.53510 | 36860 ft | 453 kts | 138° |
| 2026-04-20 21:20 | 7.62353 | -78.47048 | 36861 ft | 454 kts | 138° |
| 2026-04-20 21:20 | 7.57710 | -78.42714 | 36865 ft | 454 kts | 138° |
| 2026-04-20 21:21 | 7.53089 | -78.38402 | 36860 ft | 454 kts | 138° |
| 2026-04-20 21:21 | 7.48451 | -78.34076 | 36862 ft | 454 kts | 138° |
| 2026-04-20 21:22 | 7.43809 | -78.29746 | 36865 ft | 454 kts | 138° |
| 2026-04-20 21:22 | 7.39163 | -78.25415 | 36863 ft | 454 kts | 138° |
| 2026-04-20 21:23 | 7.34545 | -78.21110 | 36862 ft | 454 kts | 138° |
| 2026-04-20 21:23 | 7.29898 | -78.16780 | 36864 ft | 454 kts | 138° |
| 2026-04-20 21:24 | 7.25282 | -78.12479 | 36864 ft | 454 kts | 138° |
| 2026-04-20 21:24 | 7.20641 | -78.08157 | 36864 ft | 454 kts | 138° |
| 2026-04-20 21:25 | 7.16017 | -78.03851 | 36860 ft | 454 kts | 138° |
| 2026-04-20 21:25 | 7.11373 | -77.99529 | 36859 ft | 453 kts | 138° |
| 2026-04-20 21:26 | 7.06768 | -77.95182 | 36856 ft | 453 kts | 137° |
| 2026-04-20 21:26 | 7.02236 | -77.90834 | 36855 ft | 453 kts | 137° |
| 2026-04-20 21:27 | 6.97649 | -77.86434 | 36853 ft | 453 kts | 137° |
| 2026-04-20 21:27 | 6.93076 | -77.82058 | 36853 ft | 453 kts | 137° |
| 2026-04-20 21:28 | 6.88518 | -77.77702 | 36853 ft | 452 kts | 137° |
| 2026-04-20 21:28 | 6.83941 | -77.73330 | 36855 ft | 452 kts | 137° |
| 2026-04-20 21:29 | 6.79365 | -77.68961 | 36853 ft | 453 kts | 137° |
| 2026-04-20 21:29 | 6.74825 | -77.64627 | 36855 ft | 453 kts | 137° |
| 2026-04-20 21:30 | 6.70250 | -77.60261 | 36854 ft | 453 kts | 137° |
| 2026-04-20 21:30 | 6.65657 | -77.55879 | 36853 ft | 453 kts | 137° |
| 2026-04-20 21:31 | 6.61103 | -77.51535 | 36855 ft | 453 kts | 137° |
| 2026-04-20 21:31 | 6.56529 | -77.47173 | 36857 ft | 454 kts | 137° |
| 2026-04-20 21:32 | 6.51935 | -77.42793 | 36852 ft | 454 kts | 137° |
| 2026-04-20 21:32 | 6.47375 | -77.38447 | 36849 ft | 454 kts | 137° |
| 2026-04-20 21:33 | 6.42781 | -77.34070 | 36852 ft | 454 kts | 137° |
| 2026-04-20 21:33 | 6.38211 | -77.29716 | 36836 ft | 454 kts | 137° |
| 2026-04-20 21:34 | 6.33625 | -77.25348 | 36843 ft | 454 kts | 137° |
| 2026-04-20 21:34 | 6.29043 | -77.20986 | 36840 ft | 454 kts | 137° |
| 2026-04-20 21:35 | 6.24454 | -77.16617 | 36849 ft | 453 kts | 137° |
| 2026-04-20 21:35 | 6.19881 | -77.12265 | 36836 ft | 453 kts | 137° |
| 2026-04-20 21:36 | 6.15302 | -77.07909 | 36849 ft | 452 kts | 137° |
| 2026-04-20 21:36 | 6.10749 | -77.03578 | 36842 ft | 452 kts | 137° |
| 2026-04-20 21:37 | 6.06167 | -76.99221 | 36849 ft | 452 kts | 137° |
| 2026-04-20 21:37 | 6.01615 | -76.94893 | 36847 ft | 452 kts | 137° |
| 2026-04-20 21:38 | 5.97015 | -76.90521 | 36340 ft | 458 kts | 137° |
| 2026-04-20 21:38 | 5.94705 | -76.88326 | 35837 ft | 455 kts | 137° |
| 2026-04-20 21:38 | 5.92426 | -76.86160 | 35197 ft | 456 kts | 137° |
| 2026-04-20 21:38 | 5.90120 | -76.83969 | 34526 ft | 457 kts | 137° |
| 2026-04-20 21:39 | 5.87799 | -76.81764 | 33836 ft | 459 kts | 137° |
| 2026-04-20 21:39 | 5.85489 | -76.79569 | 33310 ft | 455 kts | 137° |
| 2026-04-20 21:39 | 5.83189 | -76.77385 | 32775 ft | 452 kts | 137° |
| 2026-04-20 21:39 | 5.80918 | -76.75227 | 32279 ft | 448 kts | 137° |
| 2026-04-20 21:40 | 5.78683 | -76.73105 | 31795 ft | 445 kts | 137° |
| 2026-04-20 21:40 | 5.76432 | -76.70967 | 31322 ft | 441 kts | 137° |
| 2026-04-20 21:40 | 5.74207 | -76.68854 | 30848 ft | 439 kts | 137° |
| 2026-04-20 21:40 | 5.71996 | -76.66756 | 30361 ft | 437 kts | 137° |
| 2026-04-20 21:41 | 5.69773 | -76.64674 | 29890 ft | 434 kts | 141° |
| 2026-04-20 21:41 | 5.67277 | -76.63066 | 29330 ft | 430 kts | 155° |
| 2026-04-20 21:41 | 5.64562 | -76.61831 | 28850 ft | 426 kts | 156° |
| 2026-04-20 21:41 | 5.61853 | -76.60635 | 28349 ft | 423 kts | 157° |
| 2026-04-20 21:42 | 5.59164 | -76.59451 | 27867 ft | 420 kts | 156° |
| 2026-04-20 21:42 | 5.56498 | -76.58266 | 27395 ft | 417 kts | 156° |
| 2026-04-20 21:42 | 5.53865 | -76.57083 | 26931 ft | 414 kts | 156° |
| 2026-04-20 21:42 | 5.51266 | -76.55907 | 26468 ft | 411 kts | 156° |
| 2026-04-20 21:43 | 5.48667 | -76.54724 | 26009 ft | 409 kts | 156° |
| 2026-04-20 21:43 | 5.46073 | -76.53541 | 25530 ft | 407 kts | 156° |
| 2026-04-20 21:43 | 5.43501 | -76.52367 | 25068 ft | 406 kts | 156° |
| 2026-04-20 21:43 | 5.40930 | -76.51193 | 24597 ft | 404 kts | 156° |
| 2026-04-20 21:44 | 5.38369 | -76.50023 | 24139 ft | 403 kts | 156° |
| 2026-04-20 21:44 | 5.35813 | -76.48856 | 23678 ft | 402 kts | 156° |
| 2026-04-20 21:44 | 5.33296 | -76.47706 | 23169 ft | 401 kts | 156° |
| 2026-04-20 21:44 | 5.30761 | -76.46549 | 22670 ft | 398 kts | 156° |
| 2026-04-20 21:45 | 5.28246 | -76.45402 | 22196 ft | 395 kts | 156° |
| 2026-04-20 21:45 | 5.25748 | -76.44262 | 21743 ft | 392 kts | 156° |
| 2026-04-20 21:45 | 5.23264 | -76.43128 | 21280 ft | 389 kts | 156° |
| 2026-04-20 21:45 | 5.20837 | -76.42021 | 20852 ft | 387 kts | 156° |
| 2026-04-20 21:46 | 5.18394 | -76.40906 | 20418 ft | 384 kts | 156° |
| 2026-04-20 21:46 | 5.15963 | -76.39798 | 19978 ft | 382 kts | 156° |
| 2026-04-20 21:46 | 5.13538 | -76.38691 | 19525 ft | 381 kts | 156° |
| 2026-04-20 21:46 | 5.11122 | -76.37590 | 19079 ft | 380 kts | 156° |
| 2026-04-20 21:47 | 5.08718 | -76.36493 | 18633 ft | 379 kts | 156° |
| 2026-04-20 21:47 | 5.06356 | -76.35417 | 18197 ft | 378 kts | 156° |
| 2026-04-20 21:47 | 5.03958 | -76.34323 | 17707 ft | 376 kts | 155° |
| 2026-04-20 21:47 | 5.01578 | -76.33238 | 17216 ft | 375 kts | 156° |
| 2026-04-20 21:48 | 4.99214 | -76.32160 | 16773 ft | 372 kts | 156° |
| 2026-04-20 21:48 | 4.96853 | -76.31083 | 16330 ft | 370 kts | 156° |
| 2026-04-20 21:48 | 4.94516 | -76.30018 | 15905 ft | 368 kts | 156° |
| 2026-04-20 21:48 | 4.92189 | -76.28957 | 15480 ft | 366 kts | 156° |
| 2026-04-20 21:49 | 4.89908 | -76.27917 | 15073 ft | 363 kts | 156° |
| 2026-04-20 21:49 | 4.87612 | -76.26870 | 14639 ft | 362 kts | 156° |
| 2026-04-20 21:49 | 4.85321 | -76.25827 | 14216 ft | 360 kts | 156° |
| 2026-04-20 21:49 | 4.83037 | -76.24786 | 13803 ft | 359 kts | 156° |
| 2026-04-20 21:50 | 4.80778 | -76.23725 | 13326 ft | 358 kts | 151° |
| 2026-04-20 21:50 | 4.78880 | -76.22116 | 12869 ft | 356 kts | 128° |
| 2026-04-20 21:50 | 4.77683 | -76.19996 | 12398 ft | 355 kts | 109° |
| 2026-04-20 21:50 | 4.77155 | -76.17693 | 11965 ft | 353 kts | 99° |
| 2026-04-20 21:51 | 4.76777 | -76.15259 | 11475 ft | 352 kts | 98° |
| 2026-04-20 21:51 | 4.76409 | -76.12829 | 10996 ft | 351 kts | 99° |
| 2026-04-20 21:51 | 4.76017 | -76.10406 | 10515 ft | 348 kts | 99° |
| 2026-04-20 21:51 | 4.75621 | -76.08051 | 10041 ft | 338 kts | 99° |
| 2026-04-20 21:52 | 4.75239 | -76.05808 | 9843 ft | 320 kts | 99° |
| 2026-04-20 21:52 | 4.74875 | -76.03680 | 9811 ft | 298 kts | 99° |
| 2026-04-20 21:52 | 4.74535 | -76.01688 | 9708 ft | 281 kts | 99° |
| 2026-04-20 21:52 | 4.74213 | -75.99800 | 9590 ft | 267 kts | 99° |
| 2026-04-20 21:53 | 4.73913 | -75.98032 | 9422 ft | 255 kts | 98° |
| 2026-04-20 21:53 | 4.74010 | -75.96286 | 9099 ft | 252 kts | 73° |
| 2026-04-20 21:53 | 4.74554 | -75.94629 | 8903 ft | 248 kts | 71° |
| 2026-04-20 21:53 | 4.75096 | -75.92991 | 8667 ft | 246 kts | 71° |
| 2026-04-20 21:54 | 4.75630 | -75.91362 | 8464 ft | 244 kts | 72° |
| 2026-04-20 21:54 | 4.76148 | -75.89772 | 8246 ft | 242 kts | 72° |
| 2026-04-20 21:54 | 4.76663 | -75.88188 | 8165 ft | 232 kts | 72° |
| 2026-04-20 21:54 | 4.77148 | -75.86691 | 8054 ft | 221 kts | 72° |
| 2026-04-20 21:55 | 4.77619 | -75.85240 | 7799 ft | 217 kts | 72° |
| 2026-04-20 21:55 | 4.78081 | -75.83810 | 7642 ft | 213 kts | 72° |
| 2026-04-20 21:55 | 4.78492 | -75.82417 | 7492 ft | 203 kts | 83° |
| 2026-04-20 21:55 | 4.78251 | -75.81084 | 7287 ft | 194 kts | 122° |
| 2026-04-20 21:56 | 4.77308 | -75.80175 | 6998 ft | 191 kts | 155° |
| 2026-04-20 21:56 | 4.76028 | -75.79918 | 6699 ft | 189 kts | 188° |
| 2026-04-20 21:56 | 4.74826 | -75.80404 | 6397 ft | 187 kts | 219° |
| 2026-04-20 21:56 | 4.74059 | -75.81428 | 6096 ft | 184 kts | 249° |
| 2026-04-20 21:57 | 4.73653 | -75.82658 | 6063 ft | 188 kts | 252° |
| 2026-04-20 21:57 | 4.73249 | -75.83884 | 5946 ft | 185 kts | 252° |
| 2026-04-20 21:57 | 4.73118 | -75.85140 | 5883 ft | 183 kts | 289° |
| 2026-04-20 21:57 | 4.73941 | -75.86054 | 5904 ft | 181 kts | 339° |
| 2026-04-20 21:58 | 4.75170 | -75.86032 | 5921 ft | 181 kts | 20° |
| 2026-04-20 21:58 | 4.76160 | -75.85290 | 5900 ft | 178 kts | 48° |
| 2026-04-20 21:58 | 4.76988 | -75.84375 | 5946 ft | 173 kts | 46° |
| 2026-04-20 21:58 | 4.77811 | -75.83493 | 5981 ft | 172 kts | 47° |
| 2026-04-20 21:59 | 4.78533 | -75.82559 | 5901 ft | 173 kts | 68° |
| 2026-04-20 21:59 | 4.78868 | -75.81418 | 5688 ft | 170 kts | 73° |
| 2026-04-20 21:59 | 4.79218 | -75.80308 | 5467 ft | 166 kts | 72° |
| 2026-04-20 21:59 | 4.79572 | -75.79212 | 5265 ft | 164 kts | 71° |
| 2026-04-20 22:00 | 4.79921 | -75.78131 | 5049 ft | 162 kts | 71° |
| 2026-04-20 22:00 | 4.80268 | -75.77059 | 4813 ft | 160 kts | 71° |
| 2026-04-20 22:00 | 4.80614 | -75.75990 | 4597 ft | 162 kts | 71° |
| 2026-04-20 22:00 | 4.80951 | -75.74934 | 4410 ft | 159 kts | 71° |
| 2026-04-20 22:01 | 4.81271 | -75.73951 | 4421 ft | 107 kts | 72° |
| 2026-04-20 22:01 | 4.81383 | -75.73602 | 4427 ft | 18 kts | 72° |
| 2026-04-20 22:01 | 4.81418 | -75.73497 | 4430 ft | 10 kts | 71° |
| 2026-04-20 22:01 | 4.81459 | -75.73472 | 4428 ft | 6 kts | 4° |
| 2026-04-20 22:02 | 4.81479 | -75.73475 | 4428 ft | 0 kts | 339° |
| 2026-04-20 22:02 | 4.81480 | -75.73475 | 4428 ft | 0 kts | 339° |
| 2026-04-20 22:02 | 4.81484 | -75.73477 | 4428 ft | 1 kts | 335° |
| 2026-04-20 22:02 | 4.81511 | -75.73507 | 4427 ft | 0 kts | 284° |
| 2026-04-20 22:03 | 4.81499 | -75.73562 | 4428 ft | 12 kts | 251° |
| 2026-04-20 22:03 | 4.81475 | -75.73639 | 4426 ft | 11 kts | 252° |
| 2026-04-20 22:03 | 4.81470 | -75.73696 | 4426 ft | 5 kts | 317° |
| 2026-04-20 22:03 | 4.81484 | -75.73705 | 4426 ft | 0 kts | 332° |
| 2026-04-20 22:04 | 4.81485 | -75.73706 | 4426 ft | 0 kts | 334° |
| 2026-04-20 22:04 | 4.81488 | -75.73707 | 4427 ft | 0 kts | 335° |
| 2026-04-20 22:04 | 4.81490 | -75.73708 | 4426 ft | 0 kts | 337° |
| 2026-04-20 22:04 | 4.81493 | -75.73709 | 4426 ft | 1 kts | 338° |
| 2026-04-20 22:05 | 4.81495 | -75.73710 | 4425 ft | 0 kts | 339° |
| 2026-04-20 22:05 | 4.81498 | -75.73711 | 4425 ft | 0 kts | 339° |
| 2026-04-20 22:05 | 4.81501 | -75.73712 | 4425 ft | 0 kts | 340° |
| 2026-04-20 22:05 | 4.81502 | -75.73712 | 4425 ft | 0 kts | 340° |